sensor_id;sensor_type;location;lat;lon;timestamp;pressure;altitude;pressure_sealevel;temperature;humidity
43701;BME280;58809;47.984;7.964;2022-11-12T00:02:00;98707.84;;;3.72;100.00
43701;BME280;58809;47.984;7.964;2022-11-12T00:05:20;98710.38;;;3.74;100.00
43701;BME280;58809;47.984;7.964;2022-11-12T00:08:40;98705.44;;;3.69;100.00
43701;BME280;58809;47.984;7.964;2022-11-12T00:12:01;98706.34;;;3.68;100.00
43701;BME280;58809;47.984;7.964;2022-11-12T00:15:20;98707.59;;;3.62;100.00
43701;BME280;58809;47.984;7.964;2022-11-12T00:18:40;98704.66;;;3.54;100.00
43701;BME280;58809;47.984;7.964;2022-11-12T00:22:01;98697.81;;;3.52;100.00
43701;BME280;58809;47.984;7.964;2022-11-12T00:25:21;98698.69;;;3.52;100.00
43701;BME280;58809;47.984;7.964;2022-11-12T00:28:40;98698.06;;;3.49;100.00
43701;BME280;58809;47.984;7.964;2022-11-12T00:32:00;98698.97;;;3.47;100.00
43701;BME280;58809;47.984;7.964;2022-11-12T00:35:21;98695.81;;;3.42;100.00
43701;BME280;58809;47.984;7.964;2022-11-12T00:38:41;98703.97;;;3.38;100.00
43701;BME280;58809;47.984;7.964;2022-11-12T00:42:01;98699.78;;;3.35;100.00
43701;BME280;58809;47.984;7.964;2022-11-12T00:45:22;98700.72;;;3.34;100.00
43701;BME280;58809;47.984;7.964;2022-11-12T00:48:42;98701.34;;;3.38;100.00
43701;BME280;58809;47.984;7.964;2022-11-12T00:52:03;98696.22;;;3.36;100.00
43701;BME280;58809;47.984;7.964;2022-11-12T00:55:23;98697.03;;;3.37;100.00
43701;BME280;58809;47.984;7.964;2022-11-12T00:58:43;98697.03;;;3.37;100.00
43701;BME280;58809;47.984;7.964;2022-11-12T01:02:04;98695.38;;;3.36;100.00
43701;BME280;58809;47.984;7.964;2022-11-12T01:05:24;98691.63;;;3.40;100.00
43701;BME280;58809;47.984;7.964;2022-11-12T01:08:44;98690.97;;;3.36;100.00
43701;BME280;58809;47.984;7.964;2022-11-12T01:12:04;98694.66;;;3.34;100.00
43701;BME280;58809;47.984;7.964;2022-11-12T01:15:24;98698.09;;;3.34;100.00
43701;BME280;58809;47.984;7.964;2022-11-12T01:18:44;98699.34;;;3.28;100.00
43701;BME280;58809;47.984;7.964;2022-11-12T01:22:05;98697.22;;;3.21;100.00
43701;BME280;58809;47.984;7.964;2022-11-12T01:25:25;98693.00;;;3.18;100.00
43701;BME280;58809;47.984;7.964;2022-11-12T01:28:45;98689.56;;;3.18;100.00
43701;BME280;58809;47.984;7.964;2022-11-12T01:32:06;98685.88;;;3.20;100.00
43701;BME280;58809;47.984;7.964;2022-11-12T01:35:26;98682.34;;;3.21;100.00
43701;BME280;58809;47.984;7.964;2022-11-12T01:38:47;98682.34;;;3.21;100.00
43701;BME280;58809;47.984;7.964;2022-11-12T01:42:08;98674.50;;;3.21;100.00
43701;BME280;58809;47.984;7.964;2022-11-12T01:45:29;98672.06;;;3.18;100.00
43701;BME280;58809;47.984;7.964;2022-11-12T01:48:55;98663.66;;;3.13;100.00
43701;BME280;58809;47.984;7.964;2022-11-12T01:52:25;98661.19;;;3.12;100.00
43701;BME280;58809;47.984;7.964;2022-11-12T01:55:47;98653.72;;;3.05;100.00
43701;BME280;58809;47.984;7.964;2022-11-12T01:59:12;98655.69;;;3.02;100.00
43701;BME280;58809;47.984;7.964;2022-11-12T02:02:35;98645.72;;;2.94;100.00
43701;BME280;58809;47.984;7.964;2022-11-12T02:06:05;98652.63;;;2.95;100.00
43701;BME280;58809;47.984;7.964;2022-11-12T02:09:27;98653.66;;;2.93;100.00
43701;BME280;58809;47.984;7.964;2022-11-12T02:12:48;98649.56;;;2.88;100.00
43701;BME280;58809;47.984;7.964;2022-11-12T02:16:33;98640.97;;;2.86;100.00
43701;BME280;58809;47.984;7.964;2022-11-12T02:19:58;98645.16;;;2.89;100.00
43701;BME280;58809;47.984;7.964;2022-11-12T02:23:18;98657.97;;;2.94;100.00
43701;BME280;58809;47.984;7.964;2022-11-12T02:26:46;98659.44;;;2.98;100.00
43701;BME280;58809;47.984;7.964;2022-11-12T02:30:07;98654.38;;;2.95;100.00
43701;BME280;58809;47.984;7.964;2022-11-12T02:33:27;98654.38;;;2.95;100.00
43701;BME280;58809;47.984;7.964;2022-11-12T02:36:48;98653.97;;;2.88;100.00
43701;BME280;58809;47.984;7.964;2022-11-12T02:40:08;98663.75;;;2.84;100.00
43701;BME280;58809;47.984;7.964;2022-11-12T02:43:28;98654.53;;;2.79;100.00
43701;BME280;58809;47.984;7.964;2022-11-12T02:46:48;98659.03;;;2.77;100.00
43701;BME280;58809;47.984;7.964;2022-11-12T02:50:09;98661.72;;;2.75;100.00
43701;BME280;58809;47.984;7.964;2022-11-12T02:53:29;98658.38;;;2.73;100.00
43701;BME280;58809;47.984;7.964;2022-11-12T02:56:51;98654.72;;;2.76;100.00
43701;BME280;58809;47.984;7.964;2022-11-12T03:00:12;98650.53;;;2.73;100.00
43701;BME280;58809;47.984;7.964;2022-11-12T03:03:33;98655.84;;;2.72;100.00
43701;BME280;58809;47.984;7.964;2022-11-12T03:06:53;98656.13;;;2.67;100.00
43701;BME280;58809;47.984;7.964;2022-11-12T03:10:13;98643.16;;;2.65;100.00
43701;BME280;58809;47.984;7.964;2022-11-12T03:13:33;98653.81;;;2.62;100.00
43701;BME280;58809;47.984;7.964;2022-11-12T03:16:53;98642.06;;;2.55;100.00
43701;BME280;58809;47.984;7.964;2022-11-12T03:20:13;98641.31;;;2.53;100.00
43701;BME280;58809;47.984;7.964;2022-11-12T03:23:33;98646.53;;;2.53;100.00
43701;BME280;58809;47.984;7.964;2022-11-12T03:26:54;98643.28;;;2.49;100.00
43701;BME280;58809;47.984;7.964;2022-11-12T03:30:14;98647.94;;;2.44;100.00
43701;BME280;58809;47.984;7.964;2022-11-12T03:33:36;98636.94;;;2.39;100.00
43701;BME280;58809;47.984;7.964;2022-11-12T03:36:56;98643.00;;;2.40;100.00
43701;BME280;58809;47.984;7.964;2022-11-12T03:40:17;98633.84;;;2.33;100.00
43701;BME280;58809;47.984;7.964;2022-11-12T03:43:37;98627.78;;;2.32;100.00
43701;BME280;58809;47.984;7.964;2022-11-12T03:46:58;98635.63;;;2.32;100.00
43701;BME280;58809;47.984;7.964;2022-11-12T03:50:20;98616.59;;;2.30;100.00
43701;BME280;58809;47.984;7.964;2022-11-12T03:53:41;98625.09;;;2.34;100.00
43701;BME280;58809;47.984;7.964;2022-11-12T03:57:01;98622.66;;;2.30;100.00
43701;BME280;58809;47.984;7.964;2022-11-12T04:00:23;98623.59;;;2.29;100.00
43701;BME280;58809;47.984;7.964;2022-11-12T04:03:43;98627.88;;;2.30;100.00
43701;BME280;58809;47.984;7.964;2022-11-12T04:07:03;98622.78;;;2.29;100.00
43701;BME280;58809;47.984;7.964;2022-11-12T04:10:42;98617.81;;;2.24;100.00
43701;BME280;58809;47.984;7.964;2022-11-12T04:14:02;98623.88;;;2.25;100.00
43701;BME280;58809;47.984;7.964;2022-11-12T04:17:22;98618.66;;;2.25;100.00
43701;BME280;58809;47.984;7.964;2022-11-12T04:21:03;98615.28;;;2.23;100.00
43701;BME280;58809;47.984;7.964;2022-11-12T04:24:42;98613.50;;;2.23;100.00
43701;BME280;58809;47.984;7.964;2022-11-12T04:28:21;98602.97;;;2.25;100.00
43701;BME280;58809;47.984;7.964;2022-11-12T04:31:41;98611.84;;;2.22;100.00
43701;BME280;58809;47.984;7.964;2022-11-12T04:35:02;98603.38;;;2.19;100.00
43701;BME280;58809;47.984;7.964;2022-11-12T04:38:22;98608.41;;;2.22;100.00
43701;BME280;58809;47.984;7.964;2022-11-12T04:41:42;98614.56;;;2.21;100.00
43701;BME280;58809;47.984;7.964;2022-11-12T04:45:21;98611.19;;;2.19;100.00
43701;BME280;58809;47.984;7.964;2022-11-12T04:48:42;98619.03;;;2.19;100.00
43701;BME280;58809;47.984;7.964;2022-11-12T04:52:02;98605.41;;;2.14;100.00
43701;BME280;58809;47.984;7.964;2022-11-12T04:55:25;98610.56;;;2.15;100.00
43701;BME280;58809;47.984;7.964;2022-11-12T04:58:45;98612.50;;;2.11;100.00
43701;BME280;58809;47.984;7.964;2022-11-12T05:02:05;98615.22;;;2.10;100.00
43701;BME280;58809;47.984;7.964;2022-11-12T05:05:25;98615.22;;;2.10;100.00
43701;BME280;58809;47.984;7.964;2022-11-12T05:08:52;98618.13;;;2.05;100.00
43701;BME280;58809;47.984;7.964;2022-11-12T05:12:12;98606.06;;;2.03;100.00
43701;BME280;58809;47.984;7.964;2022-11-12T05:15:32;98613.63;;;2.07;100.00
43701;BME280;58809;47.984;7.964;2022-11-12T05:18:52;98615.50;;;2.05;100.00
43701;BME280;58809;47.984;7.964;2022-11-12T05:22:12;98613.81;;;2.04;100.00
43701;BME280;58809;47.984;7.964;2022-11-12T05:25:52;98614.72;;;2.03;100.00
43701;BME280;58809;47.984;7.964;2022-11-12T05:29:12;98622.69;;;2.02;100.00
43701;BME280;58809;47.984;7.964;2022-11-12T05:32:33;98622.03;;;1.98;100.00
43701;BME280;58809;47.984;7.964;2022-11-12T05:35:55;98624.88;;;1.93;100.00
43701;BME280;58809;47.984;7.964;2022-11-12T05:39:15;98628.63;;;1.89;100.00
43701;BME280;58809;47.984;7.964;2022-11-12T05:42:35;98631.50;;;1.85;100.00
43701;BME280;58809;47.984;7.964;2022-11-12T05:45:55;98624.78;;;1.81;100.00
43701;BME280;58809;47.984;7.964;2022-11-12T05:49:16;98620.78;;;1.75;100.00
43701;BME280;58809;47.984;7.964;2022-11-12T05:52:36;98622.25;;;1.79;100.00
43701;BME280;58809;47.984;7.964;2022-11-12T05:56:03;98623.47;;;1.73;100.00
43701;BME280;58809;47.984;7.964;2022-11-12T05:59:23;98623.84;;;1.67;100.00
43701;BME280;58809;47.984;7.964;2022-11-12T06:02:44;98634.44;;;1.64;100.00
43701;BME280;58809;47.984;7.964;2022-11-12T06:06:05;98633.78;;;1.61;100.00
43701;BME280;58809;47.984;7.964;2022-11-12T06:09:25;98639.00;;;1.61;100.00
43701;BME280;58809;47.984;7.964;2022-11-12T06:12:44;98633.69;;;1.62;100.00
43701;BME280;58809;47.984;7.964;2022-11-12T06:16:05;98629.31;;;1.63;100.00
43701;BME280;58809;47.984;7.964;2022-11-12T06:19:26;98634.63;;;1.61;100.00
43701;BME280;58809;47.984;7.964;2022-11-12T06:22:46;98639.94;;;1.60;100.00
43701;BME280;58809;47.984;7.964;2022-11-12T06:26:06;98639.94;;;1.60;100.00
43701;BME280;58809;47.984;7.964;2022-11-12T06:29:26;98644.22;;;1.61;100.00
43701;BME280;58809;47.984;7.964;2022-11-12T06:32:47;98646.91;;;1.59;100.00
43701;BME280;58809;47.984;7.964;2022-11-12T06:36:09;98648.53;;;1.62;100.00
43701;BME280;58809;47.984;7.964;2022-11-12T06:39:30;98648.16;;;1.68;100.00
43701;BME280;58809;47.984;7.964;2022-11-12T06:42:55;98647.91;;;1.72;100.00
43701;BME280;58809;47.984;7.964;2022-11-12T06:46:16;98648.34;;;1.79;100.00
43701;BME280;58809;47.984;7.964;2022-11-12T06:49:37;98648.94;;;1.84;100.00
43701;BME280;58809;47.984;7.964;2022-11-12T06:52:58;98650.41;;;1.88;100.00
43701;BME280;58809;47.984;7.964;2022-11-12T06:56:18;98652.47;;;1.98;100.00
43701;BME280;58809;47.984;7.964;2022-11-12T06:59:38;98659.03;;;2.05;100.00
43701;BME280;58809;47.984;7.964;2022-11-12T07:02:58;98649.91;;;2.12;100.00
43701;BME280;58809;47.984;7.964;2022-11-12T07:06:19;98652.03;;;2.20;100.00
43701;BME280;58809;47.984;7.964;2022-11-12T07:09:39;98647.78;;;2.33;100.00
43701;BME280;58809;47.984;7.964;2022-11-12T07:13:00;98648.69;;;2.46;100.00
43701;BME280;58809;47.984;7.964;2022-11-12T07:16:20;98651.47;;;2.58;100.00
43701;BME280;58809;47.984;7.964;2022-11-12T07:19:41;98649.69;;;2.73;100.00
43701;BME280;58809;47.984;7.964;2022-11-12T07:23:01;98638.63;;;2.82;100.00
43701;BME280;58809;47.984;7.964;2022-11-12T07:26:23;98649.06;;;2.96;100.00
43701;BME280;58809;47.984;7.964;2022-11-12T07:29:45;98648.38;;;3.07;100.00
43701;BME280;58809;47.984;7.964;2022-11-12T07:33:07;98652.09;;;3.17;100.00
43701;BME280;58809;47.984;7.964;2022-11-12T07:36:27;98645.31;;;3.27;100.00
43701;BME280;58809;47.984;7.964;2022-11-12T07:39:47;98644.53;;;3.40;100.00
43701;BME280;58809;47.984;7.964;2022-11-12T07:43:07;98653.16;;;3.55;100.00
43701;BME280;58809;47.984;7.964;2022-11-12T07:46:27;98651.09;;;3.73;100.00
43701;BME280;58809;47.984;7.964;2022-11-12T07:49:48;98654.56;;;3.86;100.00
43701;BME280;58809;47.984;7.964;2022-11-12T07:53:07;98659.72;;;4.00;100.00
43701;BME280;58809;47.984;7.964;2022-11-12T07:56:27;98659.63;;;4.15;100.00
43701;BME280;58809;47.984;7.964;2022-11-12T07:59:47;98664.13;;;4.26;100.00
43701;BME280;58809;47.984;7.964;2022-11-12T08:03:07;98655.94;;;4.30;100.00
43701;BME280;58809;47.984;7.964;2022-11-12T08:06:29;98664.97;;;4.26;100.00
43701;BME280;58809;47.984;7.964;2022-11-12T08:09:49;98661.59;;;4.24;100.00
43701;BME280;58809;47.984;7.964;2022-11-12T08:13:09;98668.00;;;4.33;100.00
43701;BME280;58809;47.984;7.964;2022-11-12T08:16:30;98671.97;;;4.38;100.00
43701;BME280;58809;47.984;7.964;2022-11-12T08:19:50;98680.47;;;4.42;100.00
43701;BME280;58809;47.984;7.964;2022-11-12T08:23:13;98693.34;;;4.45;100.00
43701;BME280;58809;47.984;7.964;2022-11-12T08:26:34;98693.47;;;4.43;100.00
43701;BME280;58809;47.984;7.964;2022-11-12T08:29:54;98691.59;;;4.33;100.00
43701;BME280;58809;47.984;7.964;2022-11-12T08:33:14;98692.50;;;4.44;100.00
43701;BME280;58809;47.984;7.964;2022-11-12T08:36:34;98694.50;;;4.67;100.00
43701;BME280;58809;47.984;7.964;2022-11-12T08:39:54;98702.34;;;4.79;100.00
43701;BME280;58809;47.984;7.964;2022-11-12T08:43:14;98699.31;;;4.73;100.00
43701;BME280;58809;47.984;7.964;2022-11-12T08:46:34;98695.53;;;4.77;100.00
43701;BME280;58809;47.984;7.964;2022-11-12T08:49:54;98701.81;;;4.74;100.00
43701;BME280;58809;47.984;7.964;2022-11-12T08:53:14;98699.72;;;4.79;100.00
43701;BME280;58809;47.984;7.964;2022-11-12T08:56:34;98703.63;;;5.11;100.00
43701;BME280;58809;47.984;7.964;2022-11-12T08:59:54;98704.09;;;5.29;100.00
43701;BME280;58809;47.984;7.964;2022-11-12T09:03:17;98712.22;;;5.50;100.00
43701;BME280;58809;47.984;7.964;2022-11-12T09:06:37;98713.59;;;5.67;100.00
43701;BME280;58809;47.984;7.964;2022-11-12T09:10:00;98708.28;;;5.79;100.00
43701;BME280;58809;47.984;7.964;2022-11-12T09:13:20;98706.88;;;5.87;100.00
43701;BME280;58809;47.984;7.964;2022-11-12T09:16:40;98697.59;;;5.94;100.00
43701;BME280;58809;47.984;7.964;2022-11-12T09:20:00;98709.66;;;5.96;100.00
43701;BME280;58809;47.984;7.964;2022-11-12T09:23:20;98710.88;;;5.68;100.00
43701;BME280;58809;47.984;7.964;2022-11-12T09:26:41;98708.66;;;5.62;100.00
43701;BME280;58809;47.984;7.964;2022-11-12T09:30:01;98710.00;;;5.68;100.00
43701;BME280;58809;47.984;7.964;2022-11-12T09:33:28;98718.97;;;5.65;100.00
43701;BME280;58809;47.984;7.964;2022-11-12T09:36:49;98709.34;;;5.77;100.00
43701;BME280;58809;47.984;7.964;2022-11-12T09:40:15;98713.66;;;5.89;100.00
43701;BME280;58809;47.984;7.964;2022-11-12T09:43:59;98706.09;;;5.97;100.00
43701;BME280;58809;47.984;7.964;2022-11-12T09:47:57;98708.53;;;6.12;100.00
43701;BME280;58809;47.984;7.964;2022-11-12T09:51:15;98709.59;;;6.21;100.00
43701;BME280;58809;47.984;7.964;2022-11-12T09:54:37;98701.59;;;6.22;100.00
43701;BME280;58809;47.984;7.964;2022-11-12T09:57:57;98708.81;;;6.43;100.00
43701;BME280;58809;47.984;7.964;2022-11-12T10:01:35;98699.97;;;6.66;100.00
43701;BME280;58809;47.984;7.964;2022-11-12T10:05:24;98698.19;;;6.89;100.00
43701;BME280;58809;47.984;7.964;2022-11-12T10:09:08;98682.75;;;7.07;100.00
43701;BME280;58809;47.984;7.964;2022-11-12T10:12:42;98684.84;;;7.25;100.00
43701;BME280;58809;47.984;7.964;2022-11-12T10:16:16;98680.47;;;7.46;100.00
43701;BME280;58809;47.984;7.964;2022-11-12T10:20:31;98673.75;;;7.75;100.00
43701;BME280;58809;47.984;7.964;2022-11-12T10:23:59;98672.44;;;7.80;100.00
43701;BME280;58809;47.984;7.964;2022-11-12T10:27:21;98674.75;;;7.74;100.00
43701;BME280;58809;47.984;7.964;2022-11-12T10:30:45;98674.22;;;7.59;100.00
43701;BME280;58809;47.984;7.964;2022-11-12T10:34:19;98667.81;;;7.40;100.00
43701;BME280;58809;47.984;7.964;2022-11-12T10:37:46;98667.66;;;7.42;100.00
43701;BME280;58809;47.984;7.964;2022-11-12T10:41:29;98666.22;;;7.49;100.00
43701;BME280;58809;47.984;7.964;2022-11-12T10:44:52;98655.91;;;7.57;100.00
43701;BME280;58809;47.984;7.964;2022-11-12T10:48:22;98662.00;;;7.58;100.00
43701;BME280;58809;47.984;7.964;2022-11-12T10:51:57;98652.75;;;7.63;100.00
43701;BME280;58809;47.984;7.964;2022-11-12T10:55:26;98640.63;;;7.72;100.00
43701;BME280;58809;47.984;7.964;2022-11-12T10:59:12;98639.72;;;7.83;100.00
43701;BME280;58809;47.984;7.964;2022-11-12T11:02:33;98644.28;;;7.81;100.00
43701;BME280;58809;47.984;7.964;2022-11-12T11:09:16;98634.13;;;7.97;100.00
43701;BME280;58809;47.984;7.964;2022-11-12T11:12:36;98632.81;;;8.13;100.00
43701;BME280;58809;47.984;7.964;2022-11-12T11:16:01;98627.66;;;8.32;100.00
43701;BME280;58809;47.984;7.964;2022-11-12T11:19:21;98619.13;;;8.50;100.00
43701;BME280;58809;47.984;7.964;2022-11-12T11:22:49;98621.22;;;8.86;100.00
43701;BME280;58809;47.984;7.964;2022-11-12T11:26:23;98611.25;;;9.10;100.00
43701;BME280;58809;47.984;7.964;2022-11-12T11:30:02;98607.78;;;8.99;100.00
43701;BME280;58809;47.984;7.964;2022-11-12T11:34:09;98599.28;;;8.96;100.00
43701;BME280;58809;47.984;7.964;2022-11-12T11:37:23;98597.91;;;9.01;100.00
43701;BME280;58809;47.984;7.964;2022-11-12T11:40:59;98584.16;;;9.08;100.00
43701;BME280;58809;47.984;7.964;2022-11-12T11:51:42;98564.72;;;9.38;98.38
43701;BME280;58809;47.984;7.964;2022-11-12T11:55:22;98563.59;;;9.40;96.80
43701;BME280;58809;47.984;7.964;2022-11-12T12:02:44;98556.69;;;9.87;92.54
43701;BME280;58809;47.984;7.964;2022-11-12T12:06:23;98552.22;;;9.97;91.36
43701;BME280;58809;47.984;7.964;2022-11-12T12:10:21;98538.16;;;9.96;90.41
43701;BME280;58809;47.984;7.964;2022-11-12T12:14:29;98533.25;;;10.11;89.21
43701;BME280;58809;47.984;7.964;2022-11-12T12:21:49;98537.66;;;10.76;87.35
43701;BME280;58809;47.984;7.964;2022-11-12T12:25:17;98539.47;;;10.93;84.75
43701;BME280;58809;47.984;7.964;2022-11-12T12:28:45;98539.19;;;10.96;83.42
43701;BME280;58809;47.984;7.964;2022-11-12T12:32:19;98545.00;;;11.00;83.08
43701;BME280;58809;47.984;7.964;2022-11-12T12:36:04;98533.75;;;11.16;81.91
43701;BME280;58809;47.984;7.964;2022-11-12T12:40:01;98525.25;;;10.94;83.77
43701;BME280;58809;47.984;7.964;2022-11-12T12:43:31;98524.84;;;10.71;85.75
43701;BME280;58809;47.984;7.964;2022-11-12T12:46:58;98524.78;;;10.63;87.22
43701;BME280;58809;47.984;7.964;2022-11-12T12:50:20;98517.44;;;10.75;87.22
43701;BME280;58809;47.984;7.964;2022-11-12T12:53:41;98517.63;;;10.73;88.05
43701;BME280;58809;47.984;7.964;2022-11-12T13:00:52;98514.22;;;10.81;88.20
43701;BME280;58809;47.984;7.964;2022-11-12T13:04:14;98508.75;;;10.65;89.27
43701;BME280;58809;47.984;7.964;2022-11-12T13:07:40;98515.09;;;10.54;90.62
43701;BME280;58809;47.984;7.964;2022-11-12T13:11:01;98506.47;;;10.52;91.14
43701;BME280;58809;47.984;7.964;2022-11-12T13:17:50;98507.75;;;10.10;93.57
43701;BME280;58809;47.984;7.964;2022-11-12T13:28:22;98505.03;;;10.30;94.83
43701;BME280;58809;47.984;7.964;2022-11-12T13:31:42;98500.44;;;10.32;93.68
43701;BME280;58809;47.984;7.964;2022-11-12T13:38:40;98506.34;;;10.44;92.75
43701;BME280;58809;47.984;7.964;2022-11-12T13:42:27;98504.31;;;10.00;95.37
43701;BME280;58809;47.984;7.964;2022-11-12T13:49:26;98497.88;;;9.75;98.79
43701;BME280;58809;47.984;7.964;2022-11-12T13:52:46;98492.50;;;9.57;99.86
43701;BME280;58809;47.984;7.964;2022-11-12T13:56:10;98480.84;;;9.40;100.00
43701;BME280;58809;47.984;7.964;2022-11-12T13:59:30;98486.00;;;9.41;100.00
43701;BME280;58809;47.984;7.964;2022-11-12T14:03:04;98483.34;;;9.51;100.00
43701;BME280;58809;47.984;7.964;2022-11-12T14:06:36;98474.72;;;9.39;100.00
43701;BME280;58809;47.984;7.964;2022-11-12T14:10:11;98485.00;;;9.42;100.00
43701;BME280;58809;47.984;7.964;2022-11-12T14:17:41;98483.84;;;9.64;100.00
43701;BME280;58809;47.984;7.964;2022-11-12T14:21:05;98482.03;;;9.65;100.00
43701;BME280;58809;47.984;7.964;2022-11-12T14:24:31;98488.34;;;9.44;100.00
43701;BME280;58809;47.984;7.964;2022-11-12T14:27:53;98493.25;;;9.20;100.00
43701;BME280;58809;47.984;7.964;2022-11-12T14:31:14;98488.13;;;8.99;100.00
43701;BME280;58809;47.984;7.964;2022-11-12T14:34:42;98492.00;;;8.75;100.00
43701;BME280;58809;47.984;7.964;2022-11-12T14:41:34;98492.47;;;8.30;100.00
43701;BME280;58809;47.984;7.964;2022-11-12T14:44:56;98489.94;;;8.28;100.00
43701;BME280;58809;47.984;7.964;2022-11-12T14:48:16;98480.66;;;8.24;100.00
43701;BME280;58809;47.984;7.964;2022-11-12T14:51:45;98476.56;;;8.10;100.00
43701;BME280;58809;47.984;7.964;2022-11-12T14:55:12;98470.84;;;7.96;100.00
43701;BME280;58809;47.984;7.964;2022-11-12T14:58:37;98466.25;;;7.88;100.00
43701;BME280;58809;47.984;7.964;2022-11-12T15:02:06;98467.59;;;7.82;100.00
43701;BME280;58809;47.984;7.964;2022-11-12T15:05:58;98458.66;;;7.64;100.00
43701;BME280;58809;47.984;7.964;2022-11-12T15:09:34;98456.41;;;7.59;100.00
43701;BME280;58809;47.984;7.964;2022-11-12T15:13:15;98447.31;;;7.73;100.00
43701;BME280;58809;47.984;7.964;2022-11-12T15:16:41;98436.22;;;7.69;100.00
43701;BME280;58809;47.984;7.964;2022-11-12T15:20:04;98446.59;;;7.71;100.00
43701;BME280;58809;47.984;7.964;2022-11-12T15:23:25;98441.41;;;7.60;100.00
43701;BME280;58809;47.984;7.964;2022-11-12T15:26:47;98449.84;;;7.54;100.00
43701;BME280;58809;47.984;7.964;2022-11-12T15:30:13;98444.97;;;7.49;100.00
43701;BME280;58809;47.984;7.964;2022-11-12T15:33:35;98441.06;;;7.43;100.00
43701;BME280;58809;47.984;7.964;2022-11-12T15:37:07;98431.31;;;7.34;100.00
43701;BME280;58809;47.984;7.964;2022-11-12T15:40:31;98435.06;;;7.31;100.00
43701;BME280;58809;47.984;7.964;2022-11-12T15:43:52;98431.38;;;7.23;100.00
43701;BME280;58809;47.984;7.964;2022-11-12T15:47:18;98431.34;;;7.13;100.00
43701;BME280;58809;47.984;7.964;2022-11-12T15:50:41;98434.28;;;7.20;100.00
43701;BME280;58809;47.984;7.964;2022-11-12T15:54:01;98427.72;;;7.14;100.00
43701;BME280;58809;47.984;7.964;2022-11-12T15:57:24;98422.75;;;7.11;100.00
43701;BME280;58809;47.984;7.964;2022-11-12T16:00:47;98432.81;;;7.06;100.00
43701;BME280;58809;47.984;7.964;2022-11-12T16:04:10;98420.34;;;7.08;100.00
43701;BME280;58809;47.984;7.964;2022-11-12T16:07:30;98416.63;;;7.10;100.00
43701;BME280;58809;47.984;7.964;2022-11-12T16:10:50;98410.66;;;7.08;100.00
43701;BME280;58809;47.984;7.964;2022-11-12T16:14:12;98413.63;;;7.15;100.00
43701;BME280;58809;47.984;7.964;2022-11-12T16:17:32;98404.91;;;7.15;100.00
43701;BME280;58809;47.984;7.964;2022-11-12T16:20:52;98407.66;;;7.13;100.00
43701;BME280;58809;47.984;7.964;2022-11-12T16:24:13;98392.69;;;7.13;100.00
43701;BME280;58809;47.984;7.964;2022-11-12T16:27:33;98400.81;;;7.10;100.00
43701;BME280;58809;47.984;7.964;2022-11-12T16:30:55;98397.63;;;7.07;100.00
43701;BME280;58809;47.984;7.964;2022-11-12T16:34:15;98384.47;;;7.07;100.00
43701;BME280;58809;47.984;7.964;2022-11-12T16:37:36;98384.34;;;7.08;100.00
43701;BME280;58809;47.984;7.964;2022-11-12T16:40:57;98385.13;;;6.99;100.00
43701;BME280;58809;47.984;7.964;2022-11-12T16:44:17;98386.22;;;6.97;100.00
43701;BME280;58809;47.984;7.964;2022-11-12T16:47:46;98394.81;;;6.99;100.00
43701;BME280;58809;47.984;7.964;2022-11-12T16:51:15;98381.09;;;6.95;100.00
43701;BME280;58809;47.984;7.964;2022-11-12T16:54:36;98400.91;;;6.99;100.00
43701;BME280;58809;47.984;7.964;2022-11-12T16:57:56;98398.00;;;6.81;100.00
43701;BME280;58809;47.984;7.964;2022-11-12T17:01:27;98398.94;;;6.70;100.00
43701;BME280;58809;47.984;7.964;2022-11-12T17:04:48;98401.59;;;6.59;100.00
43701;BME280;58809;47.984;7.964;2022-11-12T17:08:08;98396.84;;;6.53;100.00
43701;BME280;58809;47.984;7.964;2022-11-12T17:11:29;98405.69;;;6.52;100.00
43701;BME280;58809;47.984;7.964;2022-11-12T17:14:49;98407.06;;;6.35;100.00
43701;BME280;58809;47.984;7.964;2022-11-12T17:18:10;98413.25;;;6.45;100.00
43701;BME280;58809;47.984;7.964;2022-11-12T17:21:30;98413.72;;;6.50;100.00
43701;BME280;58809;47.984;7.964;2022-11-12T17:24:50;98421.28;;;6.65;100.00
43701;BME280;58809;47.984;7.964;2022-11-12T17:28:13;98413.53;;;6.63;100.00
43701;BME280;58809;47.984;7.964;2022-11-12T17:31:34;98409.69;;;6.67;100.00
43701;BME280;58809;47.984;7.964;2022-11-12T17:34:54;98421.16;;;6.66;100.00
43701;BME280;58809;47.984;7.964;2022-11-12T17:38:14;98406.66;;;6.72;100.00
43701;BME280;58809;47.984;7.964;2022-11-12T17:41:34;98407.81;;;6.58;100.00
43701;BME280;58809;47.984;7.964;2022-11-12T17:44:54;98407.25;;;6.54;100.00
43701;BME280;58809;47.984;7.964;2022-11-12T17:48:15;98404.91;;;6.61;100.00
43701;BME280;58809;47.984;7.964;2022-11-12T17:51:35;98397.03;;;6.61;100.00
43701;BME280;58809;47.984;7.964;2022-11-12T17:54:56;98398.19;;;6.68;100.00
43701;BME280;58809;47.984;7.964;2022-11-12T17:58:16;98391.47;;;6.75;100.00
43701;BME280;58809;47.984;7.964;2022-11-12T18:01:36;98389.16;;;6.82;100.00
43701;BME280;58809;47.984;7.964;2022-11-12T18:04:57;98385.97;;;6.79;100.00
43701;BME280;58809;47.984;7.964;2022-11-12T18:08:17;98383.56;;;6.75;100.00
43701;BME280;58809;47.984;7.964;2022-11-12T18:11:46;98371.28;;;6.76;100.00
43701;BME280;58809;47.984;7.964;2022-11-12T18:15:07;98374.72;;;6.77;100.00
43701;BME280;58809;47.984;7.964;2022-11-12T18:18:28;98378.66;;;6.82;100.00
43701;BME280;58809;47.984;7.964;2022-11-12T18:21:48;98374.72;;;6.77;100.00
43701;BME280;58809;47.984;7.964;2022-11-12T18:25:09;98372.47;;;6.72;100.00
43701;BME280;58809;47.984;7.964;2022-11-12T18:28:29;98377.03;;;6.70;100.00
43701;BME280;58809;47.984;7.964;2022-11-12T18:31:49;98372.22;;;6.75;100.00
43701;BME280;58809;47.984;7.964;2022-11-12T18:35:09;98374.72;;;6.77;100.00
43701;BME280;58809;47.984;7.964;2022-11-12T18:38:34;98373.75;;;6.78;100.00
43701;BME280;58809;47.984;7.964;2022-11-12T18:41:54;98358.69;;;6.80;100.00
43701;BME280;58809;47.984;7.964;2022-11-12T18:45:14;98357.84;;;6.79;100.00
43701;BME280;58809;47.984;7.964;2022-11-12T18:48:36;98358.94;;;6.77;100.00